Time;durP1;ratioP1;P1;durP2;ratioP2;P2;SDS_P1;SDS_P2;PMS_P1;PMS_P2;Temp;Humidity;BMP_temperature;BMP_pressure;BME280_temperature;BME280_humidity;BME280_pressure;Samples;Min_cycle;Max_cycle;Signal;HPM_P1;HPM_P2
2024/03/25 00:01:30;;;;;;;12.37;5.60;;;;;;;5.74;90.55;99168.42;1696165;84;21585;-76
2024/03/25 00:03:59;;;;;;;12.55;5.47;;;;;;;5.74;90.51;99179.30;1696210;84;21090;-77
2024/03/25 00:06:27;;;;;;;10.82;5.37;;;;;;;5.70;90.38;99174.77;1696145;84;21055;-75
2024/03/25 00:08:55;;;;;;;11.00;5.78;;;;;;;5.69;90.38;99179.05;1696687;84;21051;-76
2024/03/25 00:11:23;;;;;;;13.28;6.12;;;;;;;5.68;90.45;99180.08;1696195;84;21484;-76
2024/03/25 00:13:51;;;;;;;10.43;5.70;;;;;;;5.63;90.34;99177.95;1696129;84;21095;-75
2024/03/25 00:16:20;;;;;;;8.75;4.87;;;;;;;5.60;90.50;99172.91;1696364;84;21019;-75
2024/03/25 00:18:48;;;;;;;9.18;4.90;;;;;;;5.60;90.72;99166.63;1696428;84;21027;-77
2024/03/25 00:21:16;;;;;;;8.58;4.90;;;;;;;5.60;90.83;99163.91;1696339;84;21051;-77
2024/03/25 00:23:45;;;;;;;8.88;5.10;;;;;;;5.59;90.84;99160.88;1696478;84;21058;-77
2024/03/25 00:26:13;;;;;;;11.33;5.40;;;;;;;5.57;90.81;99158.88;1696308;84;21052;-76
2024/03/25 00:28:42;;;;;;;9.98;4.87;;;;;;;5.56;90.95;99156.68;1696200;84;21491;-77
2024/03/25 00:31:10;;;;;;;8.80;4.83;;;;;;;5.57;90.93;99156.16;1696240;84;21020;-76
2024/03/25 00:33:38;;;;;;;10.10;5.70;;;;;;;5.58;90.93;99155.13;1696213;84;21024;-76
2024/03/25 00:36:07;;;;;;;11.12;5.72;;;;;;;5.57;90.93;99150.72;1696292;84;21454;-76
2024/03/25 00:38:36;;;;;;;14.23;6.62;;;;;;;5.56;90.93;99145.81;1696306;84;21075;-76
2024/03/25 00:41:04;;;;;;;12.98;6.40;;;;;;;5.58;91.08;99146.45;1696226;84;21063;-77
2024/03/25 00:43:33;;;;;;;12.33;6.10;;;;;;;5.60;91.15;99147.62;1696325;84;21063;-76
2024/03/25 00:46:01;;;;;;;12.30;6.08;;;;;;;5.62;91.13;99138.75;1696279;84;21035;-76
2024/03/25 00:48:30;;;;;;;10.82;5.80;;;;;;;5.65;91.03;99147.34;1696240;84;21129;-76
2024/03/25 00:50:58;;;;;;;10.98;5.87;;;;;;;5.64;90.95;99140.23;1696289;84;21047;-76
2024/03/25 00:53:26;;;;;;;9.53;5.30;;;;;;;5.65;90.87;99143.79;1696465;84;21051;-75
2024/03/25 00:55:55;;;;;;;10.48;5.20;;;;;;;5.63;90.76;99144.50;1696415;84;21066;-76
2024/03/25 00:58:24;;;;;;;8.88;4.75;;;;;;;5.62;90.69;99144.19;1696523;84;21102;-75
2024/03/25 01:00:52;;;;;;;7.50;4.12;;;;;;;5.61;90.73;99153.38;1696276;84;21074;-77
2024/03/25 01:03:20;;;;;;;8.13;4.12;;;;;;;5.60;90.74;99150.33;1696263;84;21118;-74
2024/03/25 01:05:49;;;;;;;8.40;3.70;;;;;;;5.58;90.65;99153.77;1696404;84;21071;-76
2024/03/25 01:08:19;;;;;;;7.45;4.12;;;;;;;5.55;90.46;99142.77;1696518;84;21062;-74
2024/03/25 01:10:48;;;;;;;8.90;4.12;;;;;;;5.52;90.48;99141.80;1696396;84;21094;-75
2024/03/25 01:13:16;;;;;;;9.30;4.10;;;;;;;5.51;90.57;99137.41;1696386;84;21063;-75
2024/03/25 01:15:46;;;;;;;6.40;3.92;;;;;;;5.52;90.57;99128.74;1696311;84;21003;-74
2024/03/25 01:18:14;;;;;;;7.35;4.00;;;;;;;5.52;90.51;99119.23;1696232;84;21079;-75
2024/03/25 01:20:42;;;;;;;7.53;3.70;;;;;;;5.52;90.43;99120.59;1696309;84;21098;-75
2024/03/25 01:23:11;;;;;;;8.58;4.08;;;;;;;5.54;90.38;99121.23;1696365;84;21035;-76
2024/03/25 01:25:39;;;;;;;10.15;4.62;;;;;;;5.52;90.14;99120.08;1696437;84;21071;-75
2024/03/25 01:28:08;;;;;;;8.48;4.53;;;;;;;5.48;90.07;99123.38;1696287;84;21067;-76
2024/03/25 01:30:38;;;;;;;8.13;4.72;;;;;;;5.47;90.13;99121.70;1696303;84;21468;-75
2024/03/25 01:33:06;;;;;;;8.18;4.80;;;;;;;5.45;90.12;99116.47;1696233;84;21459;-75
2024/03/25 01:35:35;;;;;;;11.33;5.60;;;;;;;5.45;90.01;99104.76;1696391;84;21519;-75
2024/03/25 01:38:04;;;;;;;10.78;5.58;;;;;;;5.40;90.02;99101.27;1696312;84;21479;-76
2024/03/25 01:40:32;;;;;;;9.78;5.30;;;;;;;5.39;90.15;99092.80;1696484;84;21072;-74
2024/03/25 01:43:02;;;;;;;10.70;5.25;;;;;;;5.39;90.27;99096.88;1696430;84;21071;-74
2024/03/25 01:45:33;;;;;;;10.30;4.72;;;;;;;5.41;90.30;99103.80;1696443;84;21075;-77
2024/03/25 01:48:07;;;;;;;7.87;4.87;;;;;;;5.43;90.17;99110.91;1696392;84;21043;-75
2024/03/25 01:50:39;;;;;;;11.55;5.22;;;;;;;5.43;90.14;99117.70;1696249;84;21062;-76
2024/03/25 01:53:08;;;;;;;8.98;5.05;;;;;;;5.40;90.08;99125.72;1695467;83;21313;-76
2024/03/25 01:55:36;;;;;;;8.33;4.47;;;;;;;5.36;89.98;99122.55;1693445;85;21078;-76
2024/03/25 01:58:06;;;;;;;7.58;4.70;;;;;;;5.32;90.06;99123.98;1664521;84;21071;-76
2024/03/25 02:00:35;;;;;;;7.30;4.53;;;;;;;5.31;90.20;99123.66;1696410;84;21047;-76
2024/03/25 02:03:04;;;;;;;6.90;4.30;;;;;;;5.30;90.34;99127.41;1695825;84;21035;-76
2024/03/25 02:05:32;;;;;;;7.78;4.42;;;;;;;5.31;90.29;99123.66;1696426;84;21047;-76
2024/03/25 02:08:01;;;;;;;7.42;4.47;;;;;;;5.31;90.16;99129.61;1696244;84;21051;-76
2024/03/25 02:10:30;;;;;;;7.72;4.60;;;;;;;5.29;90.22;99128.45;1696353;84;21043;-76
2024/03/25 02:12:58;;;;;;;9.13;4.12;;;;;;;5.30;90.26;99127.41;1696232;84;21051;-75
2024/03/25 02:15:26;;;;;;;8.18;4.15;;;;;;;5.32;90.25;99129.41;1696415;84;21080;-75
2024/03/25 02:17:54;;;;;;;10.32;4.53;;;;;;;5.32;90.24;99132.64;1696187;84;21078;-75
2024/03/25 02:20:22;;;;;;;7.42;3.90;;;;;;;5.33;90.11;99131.61;1695076;84;21083;-74
2024/03/25 02:22:51;;;;;;;8.28;4.12;;;;;;;5.30;89.95;99134.20;1686210;85;21107;-75
2024/03/25 02:25:19;;;;;;;7.37;4.05;;;;;;;5.31;89.87;99129.61;1686044;84;21091;-76
2024/03/25 02:27:47;;;;;;;8.03;4.30;;;;;;;5.32;89.92;99128.57;1686169;85;21059;-74
2024/03/25 02:30:16;;;;;;;6.95;4.20;;;;;;;5.34;89.87;99119.20;1686119;85;21012;-75
2024/03/25 02:32:45;;;;;;;8.45;4.65;;;;;;;5.33;89.80;99118.88;1686259;85;21079;-74
2024/03/25 02:35:15;;;;;;;8.35;4.45;;;;;;;5.33;89.60;99123.47;1686106;85;21035;-75
2024/03/25 02:37:44;;;;;;;7.55;4.05;;;;;;;5.32;89.49;99129.41;1686208;85;21047;-76
2024/03/25 02:40:12;;;;;;;8.38;4.30;;;;;;;5.32;89.42;99130.77;1686472;84;21075;-75
2024/03/25 02:42:40;;;;;;;7.15;4.40;;;;;;;5.31;89.39;99131.80;1686197;84;21024;-75
2024/03/25 02:45:09;;;;;;;10.32;4.40;;;;;;;5.31;89.32;99138.59;1686182;85;21095;-75
2024/03/25 02:47:38;;;;;;;8.00;3.90;;;;;;;5.33;89.15;99141.11;1686062;85;21479;-75
2024/03/25 02:50:07;;;;;;;8.95;3.85;;;;;;;5.34;88.96;99151.78;1686058;85;21008;-74
2024/03/25 02:52:35;;;;;;;7.37;4.15;;;;;;;5.35;88.81;99151.27;1686083;84;21496;-75
2024/03/25 02:55:05;;;;;;;8.65;3.98;;;;;;;5.33;88.65;99156.89;1686140;85;21039;-75
2024/03/25 02:57:33;;;;;;;8.60;4.25;;;;;;;5.32;88.51;99152.49;1686284;84;21035;-74
2024/03/25 03:00:02;;;;;;;7.92;4.30;;;;;;;5.33;88.40;99151.46;1686101;85;21043;-75
2024/03/25 03:02:30;;;;;;;7.75;4.00;;;;;;;5.34;88.21;99165.36;1686129;84;21036;-74
2024/03/25 03:04:59;;;;;;;7.83;4.05;;;;;;;5.34;88.06;99164.00;1686374;85;21062;-75
2024/03/25 03:07:28;;;;;;;13.05;4.97;;;;;;;5.34;87.80;99169.44;1686310;85;21499;-75
2024/03/25 03:09:56;;;;;;;10.80;4.40;;;;;;;5.35;87.55;99174.34;1686320;85;21487;-75
2024/03/25 03:12:25;;;;;;;7.25;4.10;;;;;;;5.34;87.41;99172.67;1686081;85;21051;-75
2024/03/25 03:14:53;;;;;;;11.00;5.17;;;;;;;5.33;87.10;99192.20;1686028;84;21012;-76
2024/03/25 03:17:21;;;;;;;11.08;5.03;;;;;;;5.33;86.91;99197.62;1686060;84;21040;-74
2024/03/25 03:19:49;;;;;;;12.30;5.53;;;;;;;5.31;86.90;99201.05;1686032;85;21525;-75
2024/03/25 03:22:18;;;;;;;13.48;5.80;;;;;;;5.33;86.81;99212.56;1686044;84;21067;-76
2024/03/25 03:24:46;;;;;;;13.25;5.72;;;;;;;5.33;86.82;99208.49;1686017;84;21055;-75
2024/03/25 03:27:14;;;;;;;15.85;6.00;;;;;;;5.34;86.84;99203.38;1685998;85;21063;-75
2024/03/25 03:29:43;;;;;;;12.47;5.92;;;;;;;5.35;86.84;99186.57;1686041;85;21057;-74
2024/03/25 03:32:11;;;;;;;11.10;5.58;;;;;;;5.36;86.74;99175.52;1686139;84;21080;-75
2024/03/25 03:34:39;;;;;;;11.25;5.50;;;;;;;5.32;86.65;99170.15;1686074;85;21083;-77
2024/03/25 03:37:08;;;;;;;12.75;5.47;;;;;;;5.31;86.56;99171.70;1686022;84;21044;-75
2024/03/25 03:39:36;;;;;;;12.00;5.62;;;;;;;5.29;86.62;99166.98;1686098;85;21035;-75
2024/03/25 03:42:05;;;;;;;11.35;5.47;;;;;;;5.31;86.58;99167.63;1686179;85;21048;-74
2024/03/25 03:44:33;;;;;;;13.05;5.50;;;;;;;5.32;86.45;99164.72;1686259;85;21036;-75
2024/03/25 03:47:02;;;;;;;12.33;6.00;;;;;;;5.33;86.34;99172.34;1686316;84;21032;-73
2024/03/25 03:49:30;;;;;;;15.70;6.42;;;;;;;5.32;86.34;99182.37;1686153;85;21036;-74
2024/03/25 03:51:58;;;;;;;15.35;6.62;;;;;;;5.32;86.22;99176.94;1686044;85;21487;-76
2024/03/25 03:54:27;;;;;;;14.53;6.35;;;;;;;5.32;86.26;99185.09;1686243;85;21064;-74
2024/03/25 03:56:55;;;;;;;14.85;6.42;;;;;;;5.30;85.87;99191.22;1688932;84;21060;-73
2024/03/25 03:59:23;;;;;;;15.30;6.97;;;;;;;5.27;85.79;99199.76;1686200;85;21059;-73
2024/03/25 04:01:52;;;;;;;15.35;7.42;;;;;;;5.25;85.85;99189.61;1662647;85;21052;-75
2024/03/25 04:04:20;;;;;;;19.05;8.10;;;;;;;5.25;85.96;99193.68;1686058;85;21079;-75
2024/03/25 04:06:48;;;;;;;23.90;8.33;;;;;;;5.28;86.06;99191.94;1686217;84;21072;-75
2024/03/25 04:09:17;;;;;;;18.65;7.83;;;;;;;5.29;86.06;99185.98;1686210;85;21520;-76
2024/03/25 04:11:46;;;;;;;15.80;8.00;;;;;;;5.31;86.12;99184.77;1686011;85;21048;-75
2024/03/25 04:14:14;;;;;;;13.88;6.80;;;;;;;5.32;86.16;99175.58;1687034;84;21076;-75
2024/03/25 04:16:42;;;;;;;18.70;7.17;;;;;;;5.35;86.26;99172.98;1686748;85;21483;-75
2024/03/25 04:19:11;;;;;;;15.53;6.78;;;;;;;5.34;86.15;99172.67;1686115;85;21028;-74
2024/03/25 04:21:39;;;;;;;20.35;6.55;;;;;;;5.34;86.10;99169.95;1685921;84;21577;-75
2024/03/25 04:24:08;;;;;;;14.90;6.15;;;;;;;5.34;86.09;99172.16;1686828;84;21068;-74
2024/03/25 04:26:36;;;;;;;15.72;5.72;;;;;;;5.34;86.14;99166.72;1686264;85;21424;-75
2024/03/25 04:29:05;;;;;;;9.50;4.95;;;;;;;5.38;86.10;99171.25;1686443;84;21043;-76
2024/03/25 04:31:33;;;;;;;7.03;3.62;;;;;;;5.40;85.93;99174.09;1686335;84;21044;-74
2024/03/25 04:34:01;;;;;;;6.33;3.55;;;;;;;5.42;85.72;99175.25;1685918;85;21479;-76
2024/03/25 04:36:30;;;;;;;5.10;3.17;;;;;;;5.40;85.38;99179.52;1685978;85;21064;-75
2024/03/25 04:38:59;;;;;;;5.03;3.10;;;;;;;5.43;85.17;99172.02;1686103;85;21040;-75
2024/03/25 04:41:27;;;;;;;7.58;3.45;;;;;;;5.47;85.00;99177.38;1686132;84;21031;-76
2024/03/25 04:43:55;;;;;;;9.45;3.40;;;;;;;5.47;84.61;99160.57;1685939;85;21444;-76
2024/03/25 04:46:24;;;;;;;8.35;3.20;;;;;;;5.48;84.39;99155.98;1685972;85;21020;-74
2024/03/25 04:48:53;;;;;;;7.62;3.33;;;;;;;5.47;84.19;99151.58;1686010;85;21538;-75
2024/03/25 04:51:22;;;;;;;6.78;3.10;;;;;;;5.48;84.06;99146.47;1686113;85;21072;-74
2024/03/25 04:53:50;;;;;;;7.78;3.20;;;;;;;5.48;83.80;99147.83;1685964;84;21039;-75
2024/03/25 04:56:18;;;;;;;5.58;2.75;;;;;;;5.49;83.79;99159.86;1686012;84;21031;-74
2024/03/25 04:58:47;;;;;;;8.78;3.17;;;;;;;5.52;83.79;99163.54;1685968;85;21047;-75
2024/03/25 05:01:15;;;;;;;7.47;3.87;;;;;;;5.55;83.73;99167.74;1685984;85;21416;-75
2024/03/25 05:03:43;;;;;;;4.87;2.58;;;;;;;5.55;83.72;99155.00;1662562;85;21128;-75
2024/03/25 05:06:12;;;;;;;7.97;3.10;;;;;;;5.55;83.67;99153.64;1686202;85;21036;-75
2024/03/25 05:08:40;;;;;;;10.85;2.87;;;;;;;5.56;83.69;99150.41;1686003;84;21043;-76
2024/03/25 05:11:08;;;;;;;7.67;3.55;;;;;;;5.57;84.05;99149.37;1686084;84;21095;-75
2024/03/25 05:13:37;;;;;;;5.45;3.10;;;;;;;5.59;84.10;99145.94;1686025;85;21472;-77
2024/03/25 05:16:06;;;;;;;8.50;3.25;;;;;;;5.61;84.17;99146.58;1686045;85;21091;-74
2024/03/25 05:18:34;;;;;;;8.48;3.22;;;;;;;5.66;84.06;99153.63;1685951;85;21522;-75
2024/03/25 05:21:03;;;;;;;7.80;4.08;;;;;;;5.68;84.01;99155.63;1662888;85;21452;-75
2024/03/25 05:23:31;;;;;;;5.90;3.33;;;;;;;5.70;83.98;99149.47;1686139;85;21047;-75
2024/03/25 05:25:59;;;;;;;9.78;3.35;;;;;;;5.69;83.96;99158.14;1685928;85;21557;-75
2024/03/25 05:28:27;;;;;;;8.68;3.47;;;;;;;5.70;83.98;99158.98;1686130;85;21523;-76
2024/03/25 05:30:56;;;;;;;5.55;3.20;;;;;;;5.71;84.14;99159.31;1686077;85;21015;-76
2024/03/25 05:33:24;;;;;;;6.42;3.20;;;;;;;5.73;84.13;99159.95;1686085;85;21515;-75
2024/03/25 05:35:52;;;;;;;8.08;3.77;;;;;;;5.73;84.29;99155.87;1662774;85;21032;-75
2024/03/25 05:38:20;;;;;;;8.05;3.47;;;;;;;5.72;84.44;99159.11;1686038;85;21476;-75
2024/03/25 05:40:49;;;;;;;5.97;3.50;;;;;;;5.74;84.42;99158.39;1686040;84;21536;-76
2024/03/25 05:43:17;;;;;;;8.43;3.37;;;;;;;5.76;84.57;99166.87;1686053;84;21099;-76
2024/03/25 05:45:54;;;;;;;8.15;3.87;;;;;;;5.74;84.61;99167.06;1686170;84;21055;-75
2024/03/25 05:48:27;;;;;;;6.40;3.65;;;;;;;5.77;84.93;99163.11;1686148;85;21048;-75
2024/03/25 05:51:09;;;;;;;6.87;3.70;;;;;;;5.83;85.16;99162.33;1686193;85;21043;-76
2024/03/25 05:53:38;;;;;;;8.20;3.92;;;;;;;5.82;85.34;99165.56;1686230;85;21024;-76
2024/03/25 05:56:06;;;;;;;8.23;3.90;;;;;;;5.83;85.58;99167.23;1662948;85;21015;-76
2024/03/25 05:58:35;;;;;;;6.62;3.47;;;;;;;5.85;85.65;99164.33;1686168;85;21024;-76
2024/03/25 06:01:04;;;;;;;8.40;4.15;;;;;;;5.90;85.71;99158.68;1695342;85;21451;-75
2024/03/25 06:03:32;;;;;;;6.00;3.45;;;;;;;5.95;85.63;99160.28;1700732;83;21054;-74
2024/03/25 06:06:01;;;;;;;5.90;3.58;;;;;;;5.96;85.53;99163.33;1723223;83;21023;-76
2024/03/25 06:08:30;;;;;;;6.12;3.72;;;;;;;5.99;85.48;99168.36;1700567;83;21090;-75
2024/03/25 06:11:02;;;;;;;11.65;3.90;;;;;;;6.01;85.54;99170.36;1723703;81;21003;-76
2024/03/25 06:13:30;;;;;;;7.83;3.72;;;;;;;6.05;85.38;99164.01;1723172;83;21007;-75
2024/03/25 06:15:59;;;;;;;6.25;3.37;;;;;;;6.06;85.30;99160.77;1722922;83;21523;-75
2024/03/25 06:18:27;;;;;;;6.12;3.52;;;;;;;6.07;85.36;99163.81;1722256;83;21035;-76
2024/03/25 06:20:56;;;;;;;8.65;3.50;;;;;;;6.10;85.52;99165.61;1723494;83;21098;-75
2024/03/25 06:23:27;;;;;;;6.00;3.30;;;;;;;6.16;85.63;99173.48;1700767;83;21024;-76
2024/03/25 06:25:56;;;;;;;7.90;3.72;;;;;;;6.23;85.61;99178.45;1723050;81;21206;-75
2024/03/25 06:28:24;;;;;;;8.30;3.30;;;;;;;6.27;85.34;99183.29;1700914;83;21047;-75
2024/03/25 06:36:27;;;;;;;5.47;2.53;;;;;;;6.38;84.40;99196.85;1723454;83;21075;-76
2024/03/25 06:38:55;;;;;;;7.03;3.33;;;;;;;6.44;84.20;99197.41;1723004;83;21031;-77
2024/03/25 06:41:24;;;;;;;5.20;2.75;;;;;;;6.49;83.85;99196.28;1723009;83;21115;-75
2024/03/25 06:43:52;;;;;;;10.90;3.02;;;;;;;6.53;83.48;99200.84;1723026;83;21020;-76
2024/03/25 06:46:21;;;;;;;5.62;2.55;;;;;;;6.52;83.31;99205.44;1700968;83;21078;-76
2024/03/25 06:48:50;;;;;;;7.80;2.90;;;;;;;6.55;83.05;99220.00;1723139;83;21007;-75
2024/03/25 06:51:18;;;;;;;9.53;3.30;;;;;;;6.56;82.79;99220.84;1723151;83;21503;-76
2024/03/25 06:53:47;;;;;;;6.42;2.58;;;;;;;6.56;82.64;99219.48;1723208;83;21028;-75
2024/03/25 06:56:16;;;;;;;5.75;2.80;;;;;;;6.56;82.48;99224.41;1686196;85;21048;-76
2024/03/25 06:58:44;;;;;;;7.20;3.08;;;;;;;6.59;82.12;99224.00;1686044;85;21108;-77
2024/03/25 07:01:13;;;;;;;5.42;2.80;;;;;;;6.63;81.80;99222.56;1695298;85;21055;-77
2024/03/25 07:03:41;;;;;;;5.90;3.30;;;;;;;6.65;81.34;99213.67;1723261;83;21043;-77
2024/03/25 07:06:10;;;;;;;6.58;3.70;;;;;;;6.68;81.11;99215.16;1723117;83;21095;-77
2024/03/25 07:08:39;;;;;;;6.67;3.10;;;;;;;6.73;81.26;99209.10;1723238;83;21095;-76
2024/03/25 07:11:07;;;;;;;10.95;3.15;;;;;;;6.78;81.11;99206.09;1723276;83;21027;-75
2024/03/25 07:13:36;;;;;;;9.10;3.33;;;;;;;6.83;81.05;99206.84;1723341;83;21066;-77
2024/03/25 07:16:05;;;;;;;6.50;3.05;;;;;;;6.89;80.91;99212.31;1723045;83;21091;-77
2024/03/25 07:18:34;;;;;;;8.75;3.30;;;;;;;6.98;80.99;99210.25;1722992;83;21467;-75
2024/03/25 07:21:03;;;;;;;14.20;4.70;;;;;;;7.06;80.47;99203.78;1723342;83;21094;-76
2024/03/25 07:23:31;;;;;;;11.08;2.95;;;;;;;7.11;80.23;99214.39;1723167;83;21090;-76
2024/03/25 07:26:00;;;;;;;9.70;3.15;;;;;;;7.24;80.09;99219.91;1723054;83;21090;-76
2024/03/25 07:28:28;;;;;;;9.60;3.25;;;;;;;7.33;79.61;99212.91;1723225;83;21470;-77
2024/03/25 07:30:59;;;;;;;5.85;2.95;;;;;;;7.41;79.31;99210.83;1700644;83;21079;-77
2024/03/25 07:33:28;;;;;;;4.72;2.80;;;;;;;7.50;78.51;99209.59;1723222;83;21031;-77
2024/03/25 07:35:57;;;;;;;4.92;2.50;;;;;;;7.58;77.87;99201.73;1723182;83;21083;-75
2024/03/25 07:38:25;;;;;;;4.95;2.77;;;;;;;7.65;77.02;99210.77;1700731;83;21471;-77
2024/03/25 07:40:54;;;;;;;13.13;4.70;;;;;;;7.67;76.35;99206.47;1723132;83;21043;-77
2024/03/25 07:43:22;;;;;;;7.08;3.12;;;;;;;7.67;75.90;99208.66;1723064;83;21039;-76
2024/03/25 07:45:51;;;;;;;6.85;2.58;;;;;;;7.71;76.29;99210.45;1723097;83;21031;-77
2024/03/25 07:48:19;;;;;;;5.87;2.30;;;;;;;7.80;75.95;99216.89;1723011;83;21079;-76
2024/03/25 07:50:49;;;;;;;7.37;2.60;;;;;;;7.86;75.39;99217.41;1701050;83;21162;-79
2024/03/25 07:53:18;;;;;;;6.12;2.33;;;;;;;7.93;75.13;99226.44;1700875;83;21054;-78
2024/03/25 07:55:46;;;;;;;5.33;2.40;;;;;;;8.02;74.74;99218.88;1723186;83;21034;-78
2024/03/25 07:58:15;;;;;;;9.53;3.27;;;;;;;8.09;74.23;99221.61;1723134;83;21106;-80
2024/03/25 08:00:44;;;;;;;5.50;2.77;;;;;;;8.14;73.97;99227.27;1723565;83;21124;-79
2024/03/25 08:03:12;;;;;;;7.95;2.80;;;;;;;8.16;73.33;99219.71;1723188;83;21031;-77
2024/03/25 08:05:41;;;;;;;7.72;2.87;;;;;;;8.15;72.93;99218.03;1723377;83;21056;-82
2024/03/25 08:08:10;;;;;;;6.70;3.20;;;;;;;8.15;72.88;99213.94;1723102;83;21087;-80
2024/03/25 08:10:39;;;;;;;8.93;3.60;;;;;;;8.21;73.22;99213.94;1700765;83;21069;-81
2024/03/25 08:13:09;;;;;;;7.92;3.27;;;;;;;8.28;73.21;99202.48;1723308;83;21491;-78
2024/03/25 08:15:39;;;;;;;7.85;3.00;;;;;;;8.34;73.00;99208.17;1723252;83;21059;-81
2024/03/25 08:18:07;;;;;;;8.88;3.00;;;;;;;8.38;72.44;99213.52;1700885;83;21063;-80
2024/03/25 08:20:38;;;;;;;10.28;3.17;;;;;;;8.40;72.07;99213.63;1723066;83;21102;-81
2024/03/25 08:23:07;;;;;;;9.60;2.85;;;;;;;8.44;71.37;99219.49;1723106;83;21118;-80
2024/03/25 08:25:36;;;;;;;4.67;2.60;;;;;;;8.48;71.14;99222.98;1678469;83;21055;-81
2024/03/25 08:28:05;;;;;;;6.45;3.20;;;;;;;8.48;70.38;99228.97;1702547;83;21102;-80
2024/03/25 08:30:34;;;;;;;7.05;2.50;;;;;;;8.44;70.29;99224.43;1726617;83;21536;-83
2024/03/25 08:33:04;;;;;;;6.17;2.80;;;;;;;8.47;70.36;99215.01;1723227;83;21043;-81
2024/03/25 08:35:34;;;;;;;6.12;2.50;;;;;;;8.46;70.08;99214.17;1722981;83;21055;-81
2024/03/25 08:38:03;;;;;;;4.97;2.77;;;;;;;8.45;69.77;99216.59;1723192;83;21063;-81
2024/03/25 08:40:33;;;;;;;6.40;2.50;;;;;;;8.43;69.23;99218.66;1723670;83;21023;-82
2024/03/25 08:43:02;;;;;;;5.83;2.47;;;;;;;8.42;68.87;99218.34;1700800;83;21062;-81
2024/03/25 08:45:31;;;;;;;5.75;2.75;;;;;;;8.41;68.55;99215.30;1723451;83;21015;-81
2024/03/25 08:48:01;;;;;;;6.75;3.20;;;;;;;8.44;68.93;99214.03;1723335;83;21112;-80
2024/03/25 08:50:30;;;;;;;5.90;2.90;;;;;;;8.46;69.09;99210.60;1723249;83;21082;-81
2024/03/25 08:52:59;;;;;;;6.67;3.40;;;;;;;8.51;69.49;99210.80;1723136;83;21071;-81
2024/03/25 08:55:28;;;;;;;8.20;3.10;;;;;;;8.54;69.40;99211.20;1722975;83;21028;-80
2024/03/25 08:58:00;;;;;;;6.67;2.92;;;;;;;8.65;69.11;99208.87;1700857;83;21051;-81
2024/03/25 09:00:29;;;;;;;7.00;2.90;;;;;;;8.78;69.06;99210.19;1722685;83;21098;-83
2024/03/25 09:17:18;;;;;;;6.30;2.33;;;;;;;10.21;66.98;99200.54;1792776;79;27963;-74
2024/03/25 09:19:46;;;;;;;8.05;2.42;;;;;;;10.30;66.57;99207.40;1764546;81;21105;-78
2024/03/25 09:22:16;;;;;;;4.28;1.70;;;;;;;10.43;65.87;99200.45;1771562;80;21579;-77
2024/03/25 09:24:46;;;;;;;4.40;1.50;;;;;;;10.38;62.48;99192.05;1760621;80;21799;-76
2024/03/25 09:27:15;;;;;;;5.58;1.98;;;;;;;10.21;59.69;99193.70;1775504;80;21545;-76
2024/03/25 09:29:44;;;;;;;5.62;1.72;;;;;;;10.03;59.54;99190.88;1792458;80;21565;-76
2024/03/25 09:32:14;;;;;;;7.50;1.80;;;;;;;9.97;58.46;99201.36;1761021;80;21581;-78
2024/03/25 09:34:47;;;;;;;4.03;1.55;;;;;;;9.89;57.82;99194.80;1757488;82;21168;-77
2024/03/25 09:37:15;;;;;;;5.33;1.60;;;;;;;9.82;56.50;99197.05;1757537;81;21149;-74
2024/03/25 09:39:48;;;;;;;5.97;1.67;;;;;;;9.69;56.73;99209.42;1774976;80;21564;-76
2024/03/25 09:42:23;;;;;;;7.95;1.95;;;;;;;9.64;57.23;99202.41;1768301;80;21560;-77
2024/03/25 09:44:53;;;;;;;6.22;1.47;;;;;;;9.61;57.11;99204.22;1749487;80;21113;-78
2024/03/25 09:47:23;;;;;;;8.43;2.20;;;;;;;9.59;56.13;99199.50;1749989;80;21093;-78
2024/03/25 09:49:54;;;;;;;6.95;1.90;;;;;;;9.53;55.96;99187.55;1750169;82;21777;-78
2024/03/25 09:52:24;;;;;;;4.03;1.40;;;;;;;9.51;56.45;99188.30;1722729;82;21591;-77
2024/03/25 09:54:52;;;;;;;7.85;1.80;;;;;;;9.52;56.16;99183.14;1750372;82;21363;-76
2024/03/25 09:57:21;;;;;;;9.60;2.72;;;;;;;9.52;56.26;99191.34;1779382;80;21631;-77
2024/03/25 09:59:51;;;;;;;5.97;1.90;;;;;;;9.53;55.95;99185.35;1762262;80;21142;-76
2024/03/25 10:02:19;;;;;;;5.20;1.90;;;;;;;9.54;56.08;99191.13;1792051;80;21622;-75
2024/03/25 10:04:48;;;;;;;6.12;1.77;;;;;;;9.60;56.31;99192.14;1792448;80;21133;-75
2024/03/25 10:07:24;;;;;;;8.70;2.20;;;;;;;9.64;56.44;99189.27;1792503;80;21172;-77
2024/03/25 10:09:53;;;;;;;10.00;2.37;;;;;;;9.69;56.17;99194.91;1792329;80;21145;-76
2024/03/25 10:12:21;;;;;;;5.53;1.80;;;;;;;9.67;55.86;99199.23;1792341;80;21587;-78
2024/03/25 10:14:50;;;;;;;6.67;2.10;;;;;;;9.65;55.30;99191.78;1792508;80;21149;-76
2024/03/25 10:17:20;;;;;;;6.20;1.75;;;;;;;9.64;54.74;99196.11;1738450;81;21117;-77
2024/03/25 10:19:51;;;;;;;4.55;1.50;;;;;;;9.58;54.89;99193.73;1764357;81;21093;-77
2024/03/25 10:22:22;;;;;;;5.00;1.82;;;;;;;9.54;54.61;99189.23;1764414;81;21668;-77
2024/03/25 10:24:50;;;;;;;4.62;1.80;;;;;;;9.47;54.82;99184.34;1764270;81;21568;-77
2024/03/25 10:39:07;;;;;;;5.00;1.95;;;;;;;9.74;54.00;99170.47;1826534;77;22097;-75
2024/03/25 10:41:36;;;;;;;9.60;2.00;;;;;;;9.64;53.93;99166.86;1760786;80;21178;-74
2024/03/25 10:44:05;;;;;;;5.78;2.00;;;;;;;9.57;54.62;99164.71;1776367;80;21087;-75
2024/03/25 10:46:35;;;;;;;4.47;1.80;;;;;;;9.52;55.11;99164.00;1788754;80;21167;-74
2024/03/25 10:49:28;;;;;;;4.60;1.80;;;;;;;9.51;55.20;99158.23;1780400;80;21134;-76
2024/03/25 10:51:57;;;;;;;4.35;1.87;;;;;;;9.46;54.58;99155.32;1722121;83;21155;-81
2024/03/25 10:54:26;;;;;;;3.80;1.67;;;;;;;9.50;59.61;99155.19;1752495;82;21143;-79
2024/03/25 10:56:55;;;;;;;8.33;1.85;;;;;;;9.69;58.71;99147.89;1723419;83;21161;-74
2024/03/25 10:59:29;;;;;;;5.65;1.87;;;;;;;9.81;58.09;99152.14;1712751;82;21588;-74
2024/03/25 11:01:58;;;;;;;5.10;1.67;;;;;;;9.81;55.27;99148.88;1695240;83;21670;-74
2024/03/25 11:04:28;;;;;;;4.80;1.70;;;;;;;9.73;54.54;99150.48;1739894;82;21214;-75
2024/03/25 11:07:13;;;;;;;15.03;2.25;;;;;;;9.66;54.25;99150.23;1695468;85;21204;-74
2024/03/25 11:09:42;;;;;;;3.92;1.37;;;;;;;9.60;54.27;99143.75;1710477;84;21210;-75
2024/03/25 11:12:12;;;;;;;6.05;1.60;;;;;;;9.54;54.49;99145.48;1695283;84;21166;-76
2024/03/25 11:14:44;;;;;;;4.28;1.62;;;;;;;9.44;54.38;99142.41;1728642;81;21639;-76
2024/03/25 11:17:16;;;;;;;4.28;1.67;;;;;;;9.30;54.73;99149.55;1730273;83;21126;-75
2024/03/25 11:19:45;;;;;;;4.25;1.50;;;;;;;9.18;55.17;99149.41;1738792;82;21648;-75
2024/03/25 11:22:14;;;;;;;4.42;1.60;;;;;;;9.08;55.31;99147.66;1738769;82;21130;-75
2024/03/25 11:24:44;;;;;;;3.05;1.27;;;;;;;9.04;55.67;99149.14;1738702;82;21202;-75
2024/03/25 11:27:14;;;;;;;6.97;1.90;;;;;;;9.02;55.53;99143.90;1738561;82;21569;-76
2024/03/25 11:29:43;;;;;;;6.28;1.98;;;;;;;8.99;55.47;99142.97;1720203;82;21158;-75
2024/03/25 11:32:13;;;;;;;5.12;1.70;;;;;;;8.99;55.58;99140.77;1738615;82;21146;-75
2024/03/25 11:34:52;;;;;;;5.42;1.52;;;;;;;8.97;55.29;99138.25;1738694;82;21182;-75
2024/03/25 11:37:21;;;;;;;5.58;1.70;;;;;;;8.96;55.43;99126.18;1736660;82;21127;-75
2024/03/25 11:39:52;;;;;;;4.67;1.47;;;;;;;8.96;55.83;99129.75;1779754;80;21174;-75
2024/03/25 11:42:26;;;;;;;7.12;2.12;;;;;;;8.98;55.53;99130.90;1750891;81;21162;-74
2024/03/25 11:44:55;;;;;;;8.93;2.60;;;;;;;9.02;55.88;99126.67;1779015;80;21140;-75
2024/03/25 11:47:27;;;;;;;4.22;1.80;;;;;;;9.05;56.04;99128.44;1734163;82;21157;-74
2024/03/25 11:49:56;;;;;;;3.58;1.45;;;;;;;9.13;55.78;99122.74;1767486;81;21181;-75
2024/03/25 11:52:32;;;;;;;4.30;1.50;;;;;;;9.17;55.78;99123.98;1767549;81;21604;-75
2024/03/25 11:55:03;;;;;;;4.17;1.60;;;;;;;9.19;55.22;99121.86;1767484;80;21103;-75
2024/03/25 11:57:35;;;;;;;5.83;1.80;;;;;;;9.22;54.92;99115.12;1767408;81;21142;-75
2024/03/25 12:00:13;;;;;;;5.45;1.72;;;;;;;9.26;54.12;99112.78;1767469;80;21529;-77
2024/03/25 12:02:48;;;;;;;5.72;1.90;;;;;;;9.32;54.07;99114.63;1741152;81;21608;-74
2024/03/25 12:05:41;;;;;;;4.12;1.40;;;;;;;9.36;53.67;99109.87;1767462;80;21118;-75
2024/03/25 12:08:20;;;;;;;5.25;1.47;;;;;;;9.42;52.20;99114.45;1767378;80;21110;-75
2024/03/25 12:11:18;;;;;;;6.95;1.40;;;;;;;9.46;52.32;99111.58;1767379;80;21158;-75
2024/03/25 12:13:47;;;;;;;3.87;1.20;;;;;;;9.54;51.73;99109.94;1744676;81;21106;-75
2024/03/25 12:16:16;;;;;;;3.98;1.07;;;;;;;9.53;50.82;99110.99;1767360;80;21689;-75
2024/03/25 12:18:49;;;;;;;5.33;1.60;;;;;;;9.52;49.58;99113.95;1767605;81;21157;-75
2024/03/25 12:21:22;;;;;;;4.05;1.30;;;;;;;9.51;49.03;99124.58;1767448;80;21126;-75